sensor_id;sensor_type;location;lat;lon;timestamp;P1;durP1;ratioP1;P2;durP2;ratioP2
34928;SDS011;21133;48.048;7.724;2023-07-02T00:00:02;1.63;;;1.53;;
34928;SDS011;21133;48.048;7.724;2023-07-02T00:02:29;1.37;;;1.37;;
34928;SDS011;21133;48.048;7.724;2023-07-02T00:04:55;2.93;;;1.30;;
34928;SDS011;21133;48.048;7.724;2023-07-02T00:07:21;1.30;;;1.30;;
34928;SDS011;21133;48.048;7.724;2023-07-02T00:09:47;1.17;;;1.17;;
34928;SDS011;21133;48.048;7.724;2023-07-02T00:12:13;1.43;;;1.43;;
34928;SDS011;21133;48.048;7.724;2023-07-02T00:14:39;1.10;;;1.10;;
34928;SDS011;21133;48.048;7.724;2023-07-02T00:17:05;2.40;;;1.20;;
34928;SDS011;21133;48.048;7.724;2023-07-02T00:19:31;1.33;;;1.33;;
34928;SDS011;21133;48.048;7.724;2023-07-02T00:21:58;1.17;;;1.17;;
34928;SDS011;21133;48.048;7.724;2023-07-02T00:24:24;0.97;;;0.97;;
34928;SDS011;21133;48.048;7.724;2023-07-02T00:26:50;1.90;;;1.40;;
34928;SDS011;21133;48.048;7.724;2023-07-02T00:29:16;7.90;;;1.53;;
34928;SDS011;21133;48.048;7.724;2023-07-02T00:31:42;1.30;;;1.30;;
34928;SDS011;21133;48.048;7.724;2023-07-02T00:34:07;2.07;;;1.90;;
34928;SDS011;21133;48.048;7.724;2023-07-02T00:36:33;1.40;;;1.40;;
34928;SDS011;21133;48.048;7.724;2023-07-02T00:38:59;1.33;;;1.33;;
34928;SDS011;21133;48.048;7.724;2023-07-02T00:41:26;1.20;;;1.20;;
34928;SDS011;21133;48.048;7.724;2023-07-02T00:43:52;1.70;;;1.70;;
34928;SDS011;21133;48.048;7.724;2023-07-02T00:46:20;2.73;;;1.70;;
34928;SDS011;21133;48.048;7.724;2023-07-02T00:48:46;2.77;;;1.30;;
34928;SDS011;21133;48.048;7.724;2023-07-02T00:51:20;3.03;;;1.90;;
34928;SDS011;21133;48.048;7.724;2023-07-02T00:53:46;3.03;;;1.57;;
34928;SDS011;21133;48.048;7.724;2023-07-02T00:56:13;9.20;;;1.43;;
34928;SDS011;21133;48.048;7.724;2023-07-02T00:58:40;1.70;;;1.70;;
34928;SDS011;21133;48.048;7.724;2023-07-02T01:01:11;3.13;;;1.70;;
34928;SDS011;21133;48.048;7.724;2023-07-02T01:03:37;1.50;;;1.40;;
34928;SDS011;21133;48.048;7.724;2023-07-02T01:06:03;1.20;;;1.20;;
34928;SDS011;21133;48.048;7.724;2023-07-02T01:08:29;1.40;;;1.40;;
34928;SDS011;21133;48.048;7.724;2023-07-02T01:10:55;1.60;;;1.60;;
34928;SDS011;21133;48.048;7.724;2023-07-02T01:13:21;2.30;;;1.90;;
34928;SDS011;21133;48.048;7.724;2023-07-02T01:15:49;3.50;;;1.40;;
34928;SDS011;21133;48.048;7.724;2023-07-02T01:18:15;1.73;;;1.63;;
34928;SDS011;21133;48.048;7.724;2023-07-02T01:20:42;2.30;;;1.80;;
34928;SDS011;21133;48.048;7.724;2023-07-02T01:23:08;1.70;;;1.70;;
34928;SDS011;21133;48.048;7.724;2023-07-02T01:25:35;2.20;;;2.17;;
34928;SDS011;21133;48.048;7.724;2023-07-02T01:28:02;2.30;;;2.20;;
34928;SDS011;21133;48.048;7.724;2023-07-02T01:30:28;2.80;;;2.10;;
34928;SDS011;21133;48.048;7.724;2023-07-02T01:32:54;1.70;;;1.70;;
34928;SDS011;21133;48.048;7.724;2023-07-02T01:35:20;1.67;;;1.67;;
34928;SDS011;21133;48.048;7.724;2023-07-02T01:37:46;2.40;;;1.67;;
34928;SDS011;21133;48.048;7.724;2023-07-02T01:40:12;2.00;;;2.00;;
34928;SDS011;21133;48.048;7.724;2023-07-02T01:42:37;2.20;;;2.20;;
34928;SDS011;21133;48.048;7.724;2023-07-02T01:45:04;2.50;;;2.27;;
34928;SDS011;21133;48.048;7.724;2023-07-02T01:47:30;1.50;;;1.50;;
34928;SDS011;21133;48.048;7.724;2023-07-02T01:49:56;2.17;;;2.07;;
34928;SDS011;21133;48.048;7.724;2023-07-02T01:52:22;1.77;;;1.63;;
34928;SDS011;21133;48.048;7.724;2023-07-02T01:54:48;1.77;;;1.77;;
34928;SDS011;21133;48.048;7.724;2023-07-02T01:57:14;5.43;;;2.00;;
34928;SDS011;21133;48.048;7.724;2023-07-02T01:59:40;3.10;;;1.80;;
34928;SDS011;21133;48.048;7.724;2023-07-02T02:02:06;2.20;;;1.50;;
34928;SDS011;21133;48.048;7.724;2023-07-02T02:04:32;1.83;;;1.73;;
34928;SDS011;21133;48.048;7.724;2023-07-02T02:07:00;1.63;;;1.63;;
34928;SDS011;21133;48.048;7.724;2023-07-02T02:09:26;2.07;;;1.97;;
34928;SDS011;21133;48.048;7.724;2023-07-02T02:11:53;2.43;;;2.23;;
34928;SDS011;21133;48.048;7.724;2023-07-02T02:14:19;1.73;;;1.73;;
34928;SDS011;21133;48.048;7.724;2023-07-02T02:16:46;2.10;;;1.90;;
34928;SDS011;21133;48.048;7.724;2023-07-02T02:19:12;1.73;;;1.73;;
34928;SDS011;21133;48.048;7.724;2023-07-02T02:21:40;4.90;;;1.30;;
34928;SDS011;21133;48.048;7.724;2023-07-02T02:24:06;2.33;;;1.70;;
34928;SDS011;21133;48.048;7.724;2023-07-02T02:26:32;2.23;;;2.10;;
34928;SDS011;21133;48.048;7.724;2023-07-02T02:28:58;1.83;;;1.73;;
34928;SDS011;21133;48.048;7.724;2023-07-02T02:31:24;1.67;;;1.67;;
34928;SDS011;21133;48.048;7.724;2023-07-02T02:33:50;2.30;;;2.30;;
34928;SDS011;21133;48.048;7.724;2023-07-02T02:36:16;2.30;;;1.80;;
34928;SDS011;21133;48.048;7.724;2023-07-02T02:38:42;2.10;;;2.10;;
34928;SDS011;21133;48.048;7.724;2023-07-02T02:41:08;2.50;;;2.30;;
34928;SDS011;21133;48.048;7.724;2023-07-02T02:43:34;4.50;;;2.40;;
34928;SDS011;21133;48.048;7.724;2023-07-02T02:46:00;2.47;;;2.20;;
34928;SDS011;21133;48.048;7.724;2023-07-02T02:48:26;2.07;;;1.97;;
34928;SDS011;21133;48.048;7.724;2023-07-02T02:50:52;7.20;;;2.33;;
34928;SDS011;21133;48.048;7.724;2023-07-02T02:53:18;4.00;;;1.80;;
34928;SDS011;21133;48.048;7.724;2023-07-02T02:55:44;2.37;;;2.27;;
34928;SDS011;21133;48.048;7.724;2023-07-02T02:58:10;1.93;;;1.93;;
34928;SDS011;21133;48.048;7.724;2023-07-02T03:00:36;3.70;;;2.30;;
34928;SDS011;21133;48.048;7.724;2023-07-02T03:03:03;2.20;;;2.10;;
34928;SDS011;21133;48.048;7.724;2023-07-02T03:05:29;2.97;;;2.07;;
34928;SDS011;21133;48.048;7.724;2023-07-02T03:07:55;8.17;;;2.50;;
34928;SDS011;21133;48.048;7.724;2023-07-02T03:10:21;2.07;;;1.97;;
34928;SDS011;21133;48.048;7.724;2023-07-02T03:12:47;2.40;;;1.90;;
34928;SDS011;21133;48.048;7.724;2023-07-02T03:15:13;3.30;;;3.00;;
34928;SDS011;21133;48.048;7.724;2023-07-02T03:17:40;2.10;;;2.00;;
34928;SDS011;21133;48.048;7.724;2023-07-02T03:20:06;2.53;;;2.43;;
34928;SDS011;21133;48.048;7.724;2023-07-02T03:22:35;9.43;;;2.80;;
34928;SDS011;21133;48.048;7.724;2023-07-02T03:25:01;2.80;;;2.80;;
34928;SDS011;21133;48.048;7.724;2023-07-02T03:27:27;2.63;;;2.43;;
34928;SDS011;21133;48.048;7.724;2023-07-02T03:29:53;2.63;;;2.53;;
34928;SDS011;21133;48.048;7.724;2023-07-02T03:32:19;2.97;;;2.77;;
34928;SDS011;21133;48.048;7.724;2023-07-02T03:34:45;2.60;;;2.50;;
34928;SDS011;21133;48.048;7.724;2023-07-02T03:37:11;9.30;;;8.13;;
34928;SDS011;21133;48.048;7.724;2023-07-02T03:39:37;3.03;;;2.93;;
34928;SDS011;21133;48.048;7.724;2023-07-02T03:42:04;2.60;;;2.60;;
34928;SDS011;21133;48.048;7.724;2023-07-02T03:44:30;3.50;;;2.47;;
34928;SDS011;21133;48.048;7.724;2023-07-02T03:46:56;4.60;;;2.77;;
34928;SDS011;21133;48.048;7.724;2023-07-02T03:49:22;2.53;;;2.43;;
34928;SDS011;21133;48.048;7.724;2023-07-02T03:51:48;6.93;;;3.00;;
34928;SDS011;21133;48.048;7.724;2023-07-02T03:54:15;6.83;;;3.23;;
34928;SDS011;21133;48.048;7.724;2023-07-02T03:56:41;3.17;;;2.97;;
34928;SDS011;21133;48.048;7.724;2023-07-02T03:59:07;3.77;;;2.87;;
34928;SDS011;21133;48.048;7.724;2023-07-02T04:01:33;3.80;;;3.63;;
34928;SDS011;21133;48.048;7.724;2023-07-02T04:03:59;6.10;;;2.90;;
34928;SDS011;21133;48.048;7.724;2023-07-02T04:06:25;5.77;;;3.13;;
34928;SDS011;21133;48.048;7.724;2023-07-02T04:08:51;8.30;;;3.80;;
34928;SDS011;21133;48.048;7.724;2023-07-02T04:11:17;3.43;;;2.87;;
34928;SDS011;21133;48.048;7.724;2023-07-02T04:13:43;3.70;;;3.50;;
34928;SDS011;21133;48.048;7.724;2023-07-02T04:16:09;5.73;;;4.60;;
34928;SDS011;21133;48.048;7.724;2023-07-02T04:18:35;5.10;;;3.43;;
34928;SDS011;21133;48.048;7.724;2023-07-02T04:21:01;4.80;;;4.40;;
34928;SDS011;21133;48.048;7.724;2023-07-02T04:23:27;4.80;;;4.40;;
34928;SDS011;21133;48.048;7.724;2023-07-02T04:25:53;7.40;;;4.10;;
34928;SDS011;21133;48.048;7.724;2023-07-02T04:28:19;4.60;;;4.17;;
34928;SDS011;21133;48.048;7.724;2023-07-02T04:30:45;4.93;;;4.40;;
34928;SDS011;21133;48.048;7.724;2023-07-02T04:33:14;6.43;;;5.00;;
34928;SDS011;21133;48.048;7.724;2023-07-02T04:35:40;4.50;;;4.30;;
34928;SDS011;21133;48.048;7.724;2023-07-02T04:38:06;3.97;;;3.70;;
34928;SDS011;21133;48.048;7.724;2023-07-02T04:40:32;4.00;;;3.80;;
34928;SDS011;21133;48.048;7.724;2023-07-02T04:42:58;4.63;;;4.33;;
34928;SDS011;21133;48.048;7.724;2023-07-02T04:45:24;5.93;;;5.40;;
34928;SDS011;21133;48.048;7.724;2023-07-02T04:47:51;6.80;;;4.80;;
34928;SDS011;21133;48.048;7.724;2023-07-02T04:50:20;5.23;;;4.70;;
34928;SDS011;21133;48.048;7.724;2023-07-02T04:52:46;15.23;;;5.90;;
34928;SDS011;21133;48.048;7.724;2023-07-02T04:55:12;7.17;;;5.57;;
34928;SDS011;21133;48.048;7.724;2023-07-02T04:57:37;9.97;;;5.80;;
34928;SDS011;21133;48.048;7.724;2023-07-02T05:00:03;9.73;;;6.17;;
34928;SDS011;21133;48.048;7.724;2023-07-02T05:02:33;9.93;;;6.50;;
34928;SDS011;21133;48.048;7.724;2023-07-02T05:04:59;9.43;;;7.43;;
34928;SDS011;21133;48.048;7.724;2023-07-02T05:07:25;10.77;;;8.20;;
34928;SDS011;21133;48.048;7.724;2023-07-02T05:09:51;7.40;;;6.90;;
34928;SDS011;21133;48.048;7.724;2023-07-02T05:12:18;10.40;;;7.30;;
34928;SDS011;21133;48.048;7.724;2023-07-02T05:14:44;14.30;;;8.00;;
34928;SDS011;21133;48.048;7.724;2023-07-02T05:17:10;14.37;;;8.70;;
34928;SDS011;21133;48.048;7.724;2023-07-02T05:19:36;11.17;;;9.80;;
34928;SDS011;21133;48.048;7.724;2023-07-02T05:22:02;15.20;;;9.17;;
34928;SDS011;21133;48.048;7.724;2023-07-02T05:24:28;12.90;;;9.20;;
34928;SDS011;21133;48.048;7.724;2023-07-02T05:26:54;13.27;;;8.30;;
34928;SDS011;21133;48.048;7.724;2023-07-02T05:29:20;13.93;;;10.47;;
34928;SDS011;21133;48.048;7.724;2023-07-02T05:31:46;12.20;;;9.70;;
34928;SDS011;21133;48.048;7.724;2023-07-02T05:34:12;19.50;;;9.93;;
34928;SDS011;21133;48.048;7.724;2023-07-02T05:36:38;15.80;;;10.40;;
34928;SDS011;21133;48.048;7.724;2023-07-02T05:39:04;14.73;;;10.97;;
34928;SDS011;21133;48.048;7.724;2023-07-02T05:41:30;13.43;;;9.80;;
34928;SDS011;21133;48.048;7.724;2023-07-02T05:43:56;13.00;;;10.80;;
34928;SDS011;21133;48.048;7.724;2023-07-02T05:46:23;17.60;;;11.00;;
34928;SDS011;21133;48.048;7.724;2023-07-02T05:48:49;18.70;;;11.40;;
34928;SDS011;21133;48.048;7.724;2023-07-02T05:51:19;22.83;;;12.57;;
34928;SDS011;21133;48.048;7.724;2023-07-02T05:53:45;15.20;;;11.30;;
34928;SDS011;21133;48.048;7.724;2023-07-02T05:56:11;19.67;;;12.83;;
34928;SDS011;21133;48.048;7.724;2023-07-02T05:58:37;24.33;;;12.33;;
34928;SDS011;21133;48.048;7.724;2023-07-02T06:01:03;16.23;;;11.40;;
34928;SDS011;21133;48.048;7.724;2023-07-02T06:03:30;24.43;;;12.77;;
34928;SDS011;21133;48.048;7.724;2023-07-02T06:05:56;21.67;;;12.83;;
34928;SDS011;21133;48.048;7.724;2023-07-02T06:08:22;24.47;;;13.93;;
34928;SDS011;21133;48.048;7.724;2023-07-02T06:10:48;19.40;;;12.93;;
34928;SDS011;21133;48.048;7.724;2023-07-02T06:13:15;24.50;;;13.60;;
34928;SDS011;21133;48.048;7.724;2023-07-02T06:15:41;19.23;;;13.67;;
34928;SDS011;21133;48.048;7.724;2023-07-02T06:18:07;29.97;;;14.30;;
34928;SDS011;21133;48.048;7.724;2023-07-02T06:20:33;23.73;;;14.63;;
34928;SDS011;21133;48.048;7.724;2023-07-02T06:22:59;30.00;;;14.57;;
34928;SDS011;21133;48.048;7.724;2023-07-02T06:25:25;25.60;;;15.50;;
34928;SDS011;21133;48.048;7.724;2023-07-02T06:27:51;20.37;;;14.17;;
34928;SDS011;21133;48.048;7.724;2023-07-02T06:30:20;20.97;;;13.40;;
34928;SDS011;21133;48.048;7.724;2023-07-02T06:32:46;24.67;;;15.90;;
34928;SDS011;21133;48.048;7.724;2023-07-02T06:35:12;21.20;;;14.43;;
34928;SDS011;21133;48.048;7.724;2023-07-02T06:37:37;18.63;;;14.30;;
34928;SDS011;21133;48.048;7.724;2023-07-02T06:40:04;19.50;;;13.33;;
34928;SDS011;21133;48.048;7.724;2023-07-02T06:42:30;27.07;;;15.40;;
34928;SDS011;21133;48.048;7.724;2023-07-02T06:44:56;15.30;;;11.40;;
34928;SDS011;21133;48.048;7.724;2023-07-02T06:47:22;25.73;;;15.13;;
34928;SDS011;21133;48.048;7.724;2023-07-02T06:49:48;28.43;;;16.10;;
34928;SDS011;21133;48.048;7.724;2023-07-02T06:52:14;26.93;;;15.20;;
34928;SDS011;21133;48.048;7.724;2023-07-02T06:54:40;32.07;;;15.60;;
34928;SDS011;21133;48.048;7.724;2023-07-02T06:57:06;25.50;;;16.40;;
34928;SDS011;21133;48.048;7.724;2023-07-02T06:59:32;27.57;;;15.40;;
34928;SDS011;21133;48.048;7.724;2023-07-02T07:01:58;25.80;;;16.20;;
34928;SDS011;21133;48.048;7.724;2023-07-02T07:04:24;26.80;;;15.87;;
34928;SDS011;21133;48.048;7.724;2023-07-02T07:06:50;30.13;;;17.10;;
34928;SDS011;21133;48.048;7.724;2023-07-02T07:09:16;30.80;;;18.40;;
34928;SDS011;21133;48.048;7.724;2023-07-02T07:11:43;26.97;;;15.30;;
34928;SDS011;21133;48.048;7.724;2023-07-02T07:14:09;29.33;;;17.87;;
34928;SDS011;21133;48.048;7.724;2023-07-02T07:16:35;24.13;;;15.93;;
34928;SDS011;21133;48.048;7.724;2023-07-02T07:19:01;24.90;;;15.67;;
34928;SDS011;21133;48.048;7.724;2023-07-02T07:21:27;28.03;;;18.13;;
34928;SDS011;21133;48.048;7.724;2023-07-02T07:23:53;27.00;;;15.93;;
34928;SDS011;21133;48.048;7.724;2023-07-02T07:26:19;37.93;;;17.93;;
34928;SDS011;21133;48.048;7.724;2023-07-02T07:28:45;30.23;;;16.60;;
34928;SDS011;21133;48.048;7.724;2023-07-02T07:31:11;23.93;;;14.33;;
34928;SDS011;21133;48.048;7.724;2023-07-02T07:33:37;21.80;;;14.13;;
34928;SDS011;21133;48.048;7.724;2023-07-02T07:36:03;31.87;;;16.67;;
34928;SDS011;21133;48.048;7.724;2023-07-02T07:38:29;25.13;;;15.23;;
34928;SDS011;21133;48.048;7.724;2023-07-02T07:40:55;32.13;;;17.37;;
34928;SDS011;21133;48.048;7.724;2023-07-02T07:43:21;34.53;;;18.03;;
34928;SDS011;21133;48.048;7.724;2023-07-02T07:45:47;30.87;;;17.17;;
34928;SDS011;21133;48.048;7.724;2023-07-02T07:48:14;35.50;;;17.73;;
34928;SDS011;21133;48.048;7.724;2023-07-02T07:50:40;24.90;;;15.90;;
34928;SDS011;21133;48.048;7.724;2023-07-02T07:53:06;32.10;;;17.90;;
34928;SDS011;21133;48.048;7.724;2023-07-02T07:55:32;32.07;;;18.60;;
34928;SDS011;21133;48.048;7.724;2023-07-02T07:57:58;35.17;;;18.70;;
34928;SDS011;21133;48.048;7.724;2023-07-02T08:00:24;38.63;;;20.10;;
34928;SDS011;21133;48.048;7.724;2023-07-02T08:02:51;33.10;;;19.40;;
34928;SDS011;21133;48.048;7.724;2023-07-02T08:05:20;32.17;;;19.07;;
34928;SDS011;21133;48.048;7.724;2023-07-02T08:07:46;31.03;;;18.23;;
34928;SDS011;21133;48.048;7.724;2023-07-02T08:10:12;27.53;;;18.27;;
34928;SDS011;21133;48.048;7.724;2023-07-02T08:12:38;33.27;;;19.77;;
34928;SDS011;21133;48.048;7.724;2023-07-02T08:15:04;37.07;;;18.03;;
34928;SDS011;21133;48.048;7.724;2023-07-02T08:17:30;39.20;;;20.20;;
34928;SDS011;21133;48.048;7.724;2023-07-02T08:19:57;28.00;;;18.13;;
34928;SDS011;21133;48.048;7.724;2023-07-02T08:22:23;27.40;;;17.83;;
34928;SDS011;21133;48.048;7.724;2023-07-02T08:24:49;29.70;;;19.23;;
34928;SDS011;21133;48.048;7.724;2023-07-02T08:27:15;33.00;;;20.07;;
34928;SDS011;21133;48.048;7.724;2023-07-02T08:29:44;25.47;;;16.20;;
34928;SDS011;21133;48.048;7.724;2023-07-02T08:32:10;31.73;;;18.00;;
34928;SDS011;21133;48.048;7.724;2023-07-02T08:34:36;30.50;;;18.00;;
34928;SDS011;21133;48.048;7.724;2023-07-02T08:37:02;27.27;;;17.53;;
34928;SDS011;21133;48.048;7.724;2023-07-02T08:39:28;26.10;;;17.30;;
34928;SDS011;21133;48.048;7.724;2023-07-02T08:41:54;33.27;;;18.70;;
34928;SDS011;21133;48.048;7.724;2023-07-02T08:44:20;29.63;;;19.40;;
34928;SDS011;21133;48.048;7.724;2023-07-02T08:46:47;30.23;;;18.40;;
34928;SDS011;21133;48.048;7.724;2023-07-02T08:49:15;30.97;;;19.10;;
34928;SDS011;21133;48.048;7.724;2023-07-02T08:51:44;32.93;;;18.50;;
34928;SDS011;21133;48.048;7.724;2023-07-02T08:54:10;37.20;;;19.77;;
34928;SDS011;21133;48.048;7.724;2023-07-02T08:56:36;32.97;;;17.80;;
34928;SDS011;21133;48.048;7.724;2023-07-02T08:59:02;25.27;;;18.37;;
34928;SDS011;21133;48.048;7.724;2023-07-02T09:01:28;41.33;;;17.83;;
34928;SDS011;21133;48.048;7.724;2023-07-02T09:03:58;25.87;;;16.30;;
34928;SDS011;21133;48.048;7.724;2023-07-02T09:06:27;26.97;;;18.10;;
34928;SDS011;21133;48.048;7.724;2023-07-02T09:08:53;29.90;;;17.30;;
34928;SDS011;21133;48.048;7.724;2023-07-02T09:11:28;26.60;;;17.13;;
34928;SDS011;21133;48.048;7.724;2023-07-02T09:13:55;31.27;;;20.17;;
34928;SDS011;21133;48.048;7.724;2023-07-02T09:16:29;31.67;;;18.70;;
34928;SDS011;21133;48.048;7.724;2023-07-02T09:19:00;30.53;;;19.67;;
34928;SDS011;21133;48.048;7.724;2023-07-02T09:21:27;26.93;;;18.67;;
34928;SDS011;21133;48.048;7.724;2023-07-02T09:23:53;35.30;;;19.70;;
34928;SDS011;21133;48.048;7.724;2023-07-02T09:26:20;27.90;;;17.70;;
34928;SDS011;21133;48.048;7.724;2023-07-02T09:28:46;27.47;;;16.43;;
34928;SDS011;21133;48.048;7.724;2023-07-02T09:31:12;23.97;;;15.47;;
34928;SDS011;21133;48.048;7.724;2023-07-02T09:33:38;32.37;;;17.87;;
34928;SDS011;21133;48.048;7.724;2023-07-02T09:36:04;27.17;;;17.83;;
34928;SDS011;21133;48.048;7.724;2023-07-02T09:38:31;27.70;;;17.27;;
34928;SDS011;21133;48.048;7.724;2023-07-02T09:40:57;30.13;;;18.40;;
34928;SDS011;21133;48.048;7.724;2023-07-02T09:43:23;39.43;;;19.20;;
34928;SDS011;21133;48.048;7.724;2023-07-02T09:45:50;34.60;;;17.77;;
34928;SDS011;21133;48.048;7.724;2023-07-02T09:48:17;32.53;;;18.20;;
34928;SDS011;21133;48.048;7.724;2023-07-02T09:50:43;25.00;;;17.17;;
34928;SDS011;21133;48.048;7.724;2023-07-02T09:53:10;36.57;;;19.87;;
34928;SDS011;21133;48.048;7.724;2023-07-02T09:55:39;31.83;;;19.83;;
34928;SDS011;21133;48.048;7.724;2023-07-02T09:58:07;31.60;;;19.57;;
34928;SDS011;21133;48.048;7.724;2023-07-02T10:00:33;29.00;;;18.70;;
34928;SDS011;21133;48.048;7.724;2023-07-02T10:02:59;38.00;;;20.17;;
34928;SDS011;21133;48.048;7.724;2023-07-02T10:05:29;32.50;;;19.13;;
34928;SDS011;21133;48.048;7.724;2023-07-02T10:07:56;33.30;;;18.27;;
34928;SDS011;21133;48.048;7.724;2023-07-02T10:10:28;37.30;;;20.80;;
34928;SDS011;21133;48.048;7.724;2023-07-02T10:12:55;40.77;;;25.77;;
34928;SDS011;21133;48.048;7.724;2023-07-02T10:15:25;33.30;;;21.47;;
34928;SDS011;21133;48.048;7.724;2023-07-02T10:17:55;31.83;;;20.93;;
34928;SDS011;21133;48.048;7.724;2023-07-02T10:20:31;36.17;;;20.00;;
34928;SDS011;21133;48.048;7.724;2023-07-02T10:22:58;30.10;;;19.17;;
34928;SDS011;21133;48.048;7.724;2023-07-02T10:25:24;35.43;;;19.97;;
34928;SDS011;21133;48.048;7.724;2023-07-02T10:27:51;38.23;;;20.97;;
34928;SDS011;21133;48.048;7.724;2023-07-02T10:30:17;31.67;;;20.07;;
34928;SDS011;21133;48.048;7.724;2023-07-02T10:32:43;34.83;;;19.43;;
34928;SDS011;21133;48.048;7.724;2023-07-02T10:35:15;32.73;;;18.60;;
34928;SDS011;21133;48.048;7.724;2023-07-02T10:37:42;35.87;;;19.07;;
34928;SDS011;21133;48.048;7.724;2023-07-02T10:40:08;31.37;;;18.77;;
34928;SDS011;21133;48.048;7.724;2023-07-02T10:42:47;28.20;;;18.80;;
34928;SDS011;21133;48.048;7.724;2023-07-02T10:45:13;32.57;;;20.17;;
34928;SDS011;21133;48.048;7.724;2023-07-02T10:47:40;36.33;;;20.87;;
34928;SDS011;21133;48.048;7.724;2023-07-02T10:50:15;25.00;;;18.13;;
34928;SDS011;21133;48.048;7.724;2023-07-02T10:52:42;28.70;;;18.10;;
34928;SDS011;21133;48.048;7.724;2023-07-02T10:55:08;38.90;;;19.60;;
34928;SDS011;21133;48.048;7.724;2023-07-02T10:57:34;32.73;;;18.10;;
34928;SDS011;21133;48.048;7.724;2023-07-02T11:00:04;33.00;;;18.47;;
34928;SDS011;21133;48.048;7.724;2023-07-02T11:02:38;32.80;;;18.13;;
34928;SDS011;21133;48.048;7.724;2023-07-02T11:05:05;33.73;;;17.67;;
34928;SDS011;21133;48.048;7.724;2023-07-02T11:07:32;27.63;;;17.40;;
34928;SDS011;21133;48.048;7.724;2023-07-02T11:09:58;26.83;;;17.67;;
34928;SDS011;21133;48.048;7.724;2023-07-02T11:12:30;25.00;;;16.23;;
34928;SDS011;21133;48.048;7.724;2023-07-02T11:17:35;26.23;;;16.13;;
34928;SDS011;21133;48.048;7.724;2023-07-02T11:20:01;30.43;;;14.57;;
34928;SDS011;21133;48.048;7.724;2023-07-02T11:22:33;28.83;;;16.20;;
34928;SDS011;21133;48.048;7.724;2023-07-02T11:27:37;37.93;;;16.33;;
34928;SDS011;21133;48.048;7.724;2023-07-02T11:30:03;24.30;;;16.57;;
34928;SDS011;21133;48.048;7.724;2023-07-02T11:32:29;21.50;;;15.50;;
34928;SDS011;21133;48.048;7.724;2023-07-02T11:34:55;23.23;;;16.27;;
34928;SDS011;21133;48.048;7.724;2023-07-02T11:37:21;35.50;;;17.47;;
34928;SDS011;21133;48.048;7.724;2023-07-02T11:39:47;31.33;;;15.90;;
34928;SDS011;21133;48.048;7.724;2023-07-02T11:42:13;24.90;;;14.80;;
34928;SDS011;21133;48.048;7.724;2023-07-02T11:44:40;34.70;;;16.57;;
34928;SDS011;21133;48.048;7.724;2023-07-02T11:47:06;31.93;;;16.63;;
34928;SDS011;21133;48.048;7.724;2023-07-02T11:49:32;30.40;;;16.87;;
34928;SDS011;21133;48.048;7.724;2023-07-02T11:51:58;29.43;;;17.00;;
34928;SDS011;21133;48.048;7.724;2023-07-02T11:54:24;22.50;;;15.27;;
34928;SDS011;21133;48.048;7.724;2023-07-02T11:56:50;19.17;;;13.93;;
34928;SDS011;21133;48.048;7.724;2023-07-02T11:59:16;23.30;;;15.10;;
34928;SDS011;21133;48.048;7.724;2023-07-02T12:01:42;26.63;;;15.30;;
34928;SDS011;21133;48.048;7.724;2023-07-02T12:04:09;26.30;;;17.03;;
34928;SDS011;21133;48.048;7.724;2023-07-02T12:06:36;20.00;;;14.07;;
34928;SDS011;21133;48.048;7.724;2023-07-02T12:09:02;26.53;;;15.50;;
34928;SDS011;21133;48.048;7.724;2023-07-02T12:11:29;20.87;;;13.80;;
34928;SDS011;21133;48.048;7.724;2023-07-02T12:13:55;29.07;;;15.30;;
34928;SDS011;21133;48.048;7.724;2023-07-02T12:16:21;28.77;;;16.00;;
34928;SDS011;21133;48.048;7.724;2023-07-02T12:18:47;20.77;;;14.33;;
34928;SDS011;21133;48.048;7.724;2023-07-02T12:21:13;26.00;;;14.00;;
34928;SDS011;21133;48.048;7.724;2023-07-02T12:23:39;20.77;;;14.10;;
34928;SDS011;21133;48.048;7.724;2023-07-02T12:26:05;24.03;;;15.50;;
34928;SDS011;21133;48.048;7.724;2023-07-02T12:28:31;24.83;;;14.17;;
34928;SDS011;21133;48.048;7.724;2023-07-02T12:30:57;19.57;;;14.27;;
34928;SDS011;21133;48.048;7.724;2023-07-02T12:33:23;17.07;;;14.03;;
34928;SDS011;21133;48.048;7.724;2023-07-02T12:35:49;24.93;;;14.47;;
34928;SDS011;21133;48.048;7.724;2023-07-02T12:38:15;22.27;;;14.77;;
34928;SDS011;21133;48.048;7.724;2023-07-02T12:40:41;23.03;;;14.60;;
34928;SDS011;21133;48.048;7.724;2023-07-02T12:43:07;20.97;;;13.63;;
34928;SDS011;21133;48.048;7.724;2023-07-02T12:45:32;17.37;;;12.40;;
34928;SDS011;21133;48.048;7.724;2023-07-02T12:47:58;23.23;;;13.20;;
34928;SDS011;21133;48.048;7.724;2023-07-02T12:50:24;19.60;;;13.50;;
34928;SDS011;21133;48.048;7.724;2023-07-02T12:52:50;18.60;;;13.33;;
34928;SDS011;21133;48.048;7.724;2023-07-02T12:55:16;20.07;;;13.73;;
34928;SDS011;21133;48.048;7.724;2023-07-02T12:57:42;21.10;;;14.40;;
34928;SDS011;21133;48.048;7.724;2023-07-02T13:00:08;18.93;;;12.30;;
34928;SDS011;21133;48.048;7.724;2023-07-02T13:02:34;24.67;;;13.97;;
34928;SDS011;21133;48.048;7.724;2023-07-02T13:05:00;19.17;;;12.80;;
34928;SDS011;21133;48.048;7.724;2023-07-02T13:07:27;17.00;;;12.93;;
34928;SDS011;21133;48.048;7.724;2023-07-02T13:09:55;20.40;;;13.43;;
34928;SDS011;21133;48.048;7.724;2023-07-02T13:12:21;21.20;;;12.53;;
34928;SDS011;21133;48.048;7.724;2023-07-02T13:14:48;18.47;;;14.30;;
34928;SDS011;21133;48.048;7.724;2023-07-02T13:17:14;22.77;;;14.60;;
34928;SDS011;21133;48.048;7.724;2023-07-02T13:19:40;19.47;;;15.30;;
34928;SDS011;21133;48.048;7.724;2023-07-02T13:22:06;20.80;;;14.73;;
34928;SDS011;21133;48.048;7.724;2023-07-02T13:24:32;28.00;;;15.07;;
34928;SDS011;21133;48.048;7.724;2023-07-02T13:27:02;22.93;;;13.90;;
34928;SDS011;21133;48.048;7.724;2023-07-02T13:29:30;26.43;;;16.53;;
34928;SDS011;21133;48.048;7.724;2023-07-02T13:31:56;21.80;;;14.87;;
34928;SDS011;21133;48.048;7.724;2023-07-02T13:34:22;22.13;;;16.30;;
34928;SDS011;21133;48.048;7.724;2023-07-02T13:36:48;24.50;;;14.03;;
34928;SDS011;21133;48.048;7.724;2023-07-02T13:39:14;27.17;;;17.13;;
34928;SDS011;21133;48.048;7.724;2023-07-02T13:41:40;24.20;;;15.00;;
34928;SDS011;21133;48.048;7.724;2023-07-02T13:44:06;19.20;;;14.00;;
34928;SDS011;21133;48.048;7.724;2023-07-02T13:46:32;25.13;;;16.17;;
34928;SDS011;21133;48.048;7.724;2023-07-02T13:48:58;25.00;;;15.80;;
34928;SDS011;21133;48.048;7.724;2023-07-02T13:51:24;24.00;;;16.20;;
34928;SDS011;21133;48.048;7.724;2023-07-02T13:53:50;19.83;;;14.10;;
34928;SDS011;21133;48.048;7.724;2023-07-02T13:56:16;25.70;;;15.83;;
34928;SDS011;21133;48.048;7.724;2023-07-02T14:01:12;26.27;;;17.37;;
34928;SDS011;21133;48.048;7.724;2023-07-02T14:03:38;24.70;;;15.70;;
34928;SDS011;21133;48.048;7.724;2023-07-02T14:06:04;25.30;;;14.90;;
34928;SDS011;21133;48.048;7.724;2023-07-02T14:08:30;26.93;;;15.17;;
34928;SDS011;21133;48.048;7.724;2023-07-02T14:10:56;19.80;;;14.33;;
34928;SDS011;21133;48.048;7.724;2023-07-02T14:13:22;20.50;;;15.03;;
34928;SDS011;21133;48.048;7.724;2023-07-02T14:15:49;22.93;;;14.80;;
34928;SDS011;21133;48.048;7.724;2023-07-02T14:18:15;20.00;;;14.03;;
34928;SDS011;21133;48.048;7.724;2023-07-02T14:20:41;24.33;;;13.63;;
34928;SDS011;21133;48.048;7.724;2023-07-02T14:23:07;20.20;;;14.80;;
34928;SDS011;21133;48.048;7.724;2023-07-02T14:25:34;20.87;;;13.00;;
34928;SDS011;21133;48.048;7.724;2023-07-02T14:28:00;21.47;;;12.67;;
34928;SDS011;21133;48.048;7.724;2023-07-02T14:30:26;16.20;;;12.63;;
34928;SDS011;21133;48.048;7.724;2023-07-02T14:32:52;21.00;;;13.30;;